Cantil, CA (93519)

11:21 AM PDT on October 25, 2014 (GMT -0700)
FAR site | Change Station
CLOSE
Current Station
Personal Weather Station
Location: Cantil, CA
Elevation: 2000 ft
Nearby Weather Stations

Elev 2000 ft 35.35 °N, 117.81 °W | Updated 1 minute ago

Clear
Clear
77.5 °F
Feels Like 78 °F
N
27.0
Wind Variable Wind from SSE
Gusts 27.0 mph

Today
High -- | Low -- °F
--% Chance of Precip.
Yesterday
High -- | Low -- °F
Precip. -- in
7:06 AM 6:04 PM
Waxing Crescent, 4% visible
Pressure 30.10 in
Visibility 10.0 miles
Clouds Clear
Heat Index 78 °F
Dew Point 40 °F
Humidity 26%
Rainfall 0.00 in
Snow Depth Not available.
UV 5 out of 12
Pollen 4.00 out of 12
Ozone Good
Flu Activity Sporadic
METAR KMHV 251815Z AUTO 20015G21KT 10SM CLR 24/02 A3010 RMK AO1

More Conditions Fewer Conditions

Pressure 30.10 in
Visibility 10.0 miles
Clouds Clear
Heat Index 78 °F
Dew Point 40 °F
Humidity 26%
Rainfall 0.00 in
Snow Depth Not available.
UV 5 out of 12
Pollen 4.00 out of 12
Ozone Good
Flu Activity Sporadic
METAR KMHV 251815Z AUTO 20015G21KT 10SM CLR 24/02 A3010 RMK AO1

More Conditions Fewer Conditions

10-Day Weather Forecast

Almanac

Astronomy

Oct. 25, 2014 Rise Set
Actual Time 7:06 AM PDT 6:04 PM PDT
Civil Twilight 6:40 AM PDT 6:30 PM PDT
Nautical Twilight 6:11 AM PDT 7:00 PM PDT
Astronomical Twilight 5:41 AM PDT 7:29 PM PDT
Moon 8:47 AM PDT 7:34 PM PDT
Length of Visible Light 11h 49m
Length of Day
10h 57m
Tomorrow will be 2m 2s shorter.
Waxing Crescent, 4% of the Moon is Illuminated
Today
Waxing Crescent
Oct 30
First Quarter
Nov 6
Full
Nov 14
Last Quarter
Nov 22
New

Today's Extremes

State Highs State Lows

Community

WunderPhotos

Upload Photos

1,764,931 photos uploaded!

Nearby

Air Quality

  Air Quality AQ Index Pollutant
Yesterday Good
OZONE
Current Good
OZONE
Sunday Good
PM10
Sunday Moderate
OZONE
Sunday Good
CO
Sunday Good
NO2

Snow Depth

Station Depth Elevation
Virginia Lakes Ridge 0 in 9200 ft
Leavitt Lake 1 in 9400 ft
Leavitt Meadows 0 in 7200 ft
Sonora Pass 0 in 8800 ft
Summit Meadow 1 in 9122 ft

Earthquake Activity

City Distance Mag. Time & Date
Lone Pine, California 57 miles 3.6 7:31 AM PDT
2014-10-25
Running Springs, California 87 miles 3.1 4:07 AM PDT
2014-10-25
Brea, California 95 miles 2.9 3:35 PM PDT
2014-10-23
Brea, California 94 miles 2.8 3:34 PM PDT
2014-10-23
Minimum magnitude displayed is 2.5.

Coastal Water Temperatures

Place Temperature
No Stations Reporting

Nearby Weather Stations